sensor_id;sensor_type;location;lat;lon;timestamp;temperature;humidity
25170;DHT22;13129;48.012;10.352;2023-02-24T04:32:20;1.80;99.90
25170;DHT22;13129;48.012;10.352;2023-02-24T04:34:47;1.90;99.90
25170;DHT22;13129;48.012;10.352;2023-02-24T04:37:13;2.00;99.90
25170;DHT22;13129;48.012;10.352;2023-02-24T04:39:38;1.90;99.90
25170;DHT22;13129;48.012;10.352;2023-02-24T04:42:05;1.90;99.90
25170;DHT22;13129;48.012;10.352;2023-02-24T04:44:31;1.90;99.90
25170;DHT22;13129;48.012;10.352;2023-02-24T04:46:58;1.90;99.90
25170;DHT22;13129;48.012;10.352;2023-02-24T04:49:25;1.90;99.90
25170;DHT22;13129;48.012;10.352;2023-02-24T04:51:51;1.90;99.90
25170;DHT22;13129;48.012;10.352;2023-02-24T04:54:18;1.90;99.90
25170;DHT22;13129;48.012;10.352;2023-02-24T04:56:45;1.90;99.90
25170;DHT22;13129;48.012;10.352;2023-02-24T04:59:13;1.80;99.90
25170;DHT22;13129;48.012;10.352;2023-02-24T05:01:40;1.80;99.90
25170;DHT22;13129;48.012;10.352;2023-02-24T05:04:08;1.80;99.90
25170;DHT22;13129;48.012;10.352;2023-02-24T05:06:34;1.80;99.90
25170;DHT22;13129;48.012;10.352;2023-02-24T05:09:00;1.80;99.90
25170;DHT22;13129;48.012;10.352;2023-02-24T05:11:26;1.80;99.90
25170;DHT22;13129;48.012;10.352;2023-02-24T05:13:59;1.80;99.90
25170;DHT22;13129;48.012;10.352;2023-02-24T05:16:25;1.70;99.90
25170;DHT22;13129;48.012;10.352;2023-02-24T05:18:53;1.70;99.90
25170;DHT22;13129;48.012;10.352;2023-02-24T05:21:39;1.80;99.90
25170;DHT22;13129;48.012;10.352;2023-02-24T05:24:06;1.70;99.90
25170;DHT22;13129;48.012;10.352;2023-02-24T05:26:34;1.70;99.90
25170;DHT22;13129;48.012;10.352;2023-02-24T05:29:02;1.70;99.90
25170;DHT22;13129;48.012;10.352;2023-02-24T05:31:29;1.70;99.90
25170;DHT22;13129;48.012;10.352;2023-02-24T05:34:05;1.60;99.90
25170;DHT22;13129;48.012;10.352;2023-02-24T05:36:39;1.60;99.90
25170;DHT22;13129;48.012;10.352;2023-02-24T05:39:06;1.60;99.90
25170;DHT22;13129;48.012;10.352;2023-02-24T05:41:36;1.60;99.90
25170;DHT22;13129;48.012;10.352;2023-02-24T05:44:09;1.50;99.90
25170;DHT22;13129;48.012;10.352;2023-02-24T05:46:38;1.60;99.90
25170;DHT22;13129;48.012;10.352;2023-02-24T05:49:28;1.60;99.90
25170;DHT22;13129;48.012;10.352;2023-02-24T05:52:02;1.50;99.90
25170;DHT22;13129;48.012;10.352;2023-02-24T05:54:37;1.50;99.90
25170;DHT22;13129;48.012;10.352;2023-02-24T05:57:09;1.60;99.90
25170;DHT22;13129;48.012;10.352;2023-02-24T05:59:39;1.60;99.90
25170;DHT22;13129;48.012;10.352;2023-02-24T06:02:08;1.50;99.90
25170;DHT22;13129;48.012;10.352;2023-02-24T06:04:35;1.50;99.90
25170;DHT22;13129;48.012;10.352;2023-02-24T06:07:10;1.50;99.90
25170;DHT22;13129;48.012;10.352;2023-02-24T06:09:40;1.40;99.90
25170;DHT22;13129;48.012;10.352;2023-02-24T06:12:10;1.40;99.90
25170;DHT22;13129;48.012;10.352;2023-02-24T06:14:36;1.40;99.90
25170;DHT22;13129;48.012;10.352;2023-02-24T06:17:02;1.40;99.90
25170;DHT22;13129;48.012;10.352;2023-02-24T06:19:28;1.40;99.90
25170;DHT22;13129;48.012;10.352;2023-02-24T06:21:57;1.40;99.90
25170;DHT22;13129;48.012;10.352;2023-02-24T06:24:31;1.40;99.90
25170;DHT22;13129;48.012;10.352;2023-02-24T06:26:58;1.40;99.90
25170;DHT22;13129;48.012;10.352;2023-02-24T06:29:35;1.50;99.90
25170;DHT22;13129;48.012;10.352;2023-02-24T06:32:02;1.50;99.90
25170;DHT22;13129;48.012;10.352;2023-02-24T06:34:39;1.60;99.90
25170;DHT22;13129;48.012;10.352;2023-02-24T06:37:06;1.70;99.90
25170;DHT22;13129;48.012;10.352;2023-02-24T06:39:32;1.70;99.90
25170;DHT22;13129;48.012;10.352;2023-02-24T06:42:00;1.80;99.90
25170;DHT22;13129;48.012;10.352;2023-02-24T06:44:34;1.90;99.90
25170;DHT22;13129;48.012;10.352;2023-02-24T06:47:00;2.00;99.90
25170;DHT22;13129;48.012;10.352;2023-02-24T06:49:26;2.00;99.90
25170;DHT22;13129;48.012;10.352;2023-02-24T06:51:53;2.10;99.90
25170;DHT22;13129;48.012;10.352;2023-02-24T06:54:20;2.10;99.90
25170;DHT22;13129;48.012;10.352;2023-02-24T06:56:47;2.20;99.90
25170;DHT22;13129;48.012;10.352;2023-02-24T06:59:13;2.20;99.90
25170;DHT22;13129;48.012;10.352;2023-02-24T07:01:46;2.30;99.90
25170;DHT22;13129;48.012;10.352;2023-02-24T07:04:12;2.40;99.90
25170;DHT22;13129;48.012;10.352;2023-02-24T07:06:40;2.50;99.90
25170;DHT22;13129;48.012;10.352;2023-02-24T07:09:08;2.50;99.90
25170;DHT22;13129;48.012;10.352;2023-02-24T07:11:36;2.70;99.90
25170;DHT22;13129;48.012;10.352;2023-02-24T07:14:02;2.80;99.90
25170;DHT22;13129;48.012;10.352;2023-02-24T07:16:30;3.00;99.90
25170;DHT22;13129;48.012;10.352;2023-02-24T07:18:59;3.10;99.90
25170;DHT22;13129;48.012;10.352;2023-02-24T07:21:27;3.20;99.90
25170;DHT22;13129;48.012;10.352;2023-02-24T07:23:55;3.30;99.90
25170;DHT22;13129;48.012;10.352;2023-02-24T07:26:23;3.30;99.90
25170;DHT22;13129;48.012;10.352;2023-02-24T07:28:50;3.50;99.90
25170;DHT22;13129;48.012;10.352;2023-02-24T07:31:20;3.80;99.90
25170;DHT22;13129;48.012;10.352;2023-02-24T07:33:47;3.80;99.90
25170;DHT22;13129;48.012;10.352;2023-02-24T07:36:15;4.10;99.90
25170;DHT22;13129;48.012;10.352;2023-02-24T07:38:43;4.30;99.90
25170;DHT22;13129;48.012;10.352;2023-02-24T07:41:11;4.50;99.90
25170;DHT22;13129;48.012;10.352;2023-02-24T07:43:41;4.90;99.90
25170;DHT22;13129;48.012;10.352;2023-02-24T07:46:15;5.20;99.90
25170;DHT22;13129;48.012;10.352;2023-02-24T07:48:41;5.50;99.90
25170;DHT22;13129;48.012;10.352;2023-02-24T07:51:08;5.80;99.90
25170;DHT22;13129;48.012;10.352;2023-02-24T07:53:35;6.10;99.90
25170;DHT22;13129;48.012;10.352;2023-02-24T07:56:11;6.50;99.90
25170;DHT22;13129;48.012;10.352;2023-02-24T07:58:46;7.00;99.90
25170;DHT22;13129;48.012;10.352;2023-02-24T08:01:17;8.10;99.90
25170;DHT22;13129;48.012;10.352;2023-02-24T08:04:05;9.20;99.90
25170;DHT22;13129;48.012;10.352;2023-02-24T08:06:41;10.10;99.90
25170;DHT22;13129;48.012;10.352;2023-02-24T08:09:19;10.60;99.90
25170;DHT22;13129;48.012;10.352;2023-02-24T08:14:14;12.10;99.90
25170;DHT22;13129;48.012;10.352;2023-02-24T08:16:47;12.70;99.90
25170;DHT22;13129;48.012;10.352;2023-02-24T08:19:18;13.10;99.90
25170;DHT22;13129;48.012;10.352;2023-02-24T08:21:51;13.30;99.90
25170;DHT22;13129;48.012;10.352;2023-02-24T08:24:20;13.50;99.90
25170;DHT22;13129;48.012;10.352;2023-02-24T08:26:50;14.50;99.90
25170;DHT22;13129;48.012;10.352;2023-02-24T08:29:37;15.00;99.90
25170;DHT22;13129;48.012;10.352;2023-02-24T08:32:39;15.00;99.90
25170;DHT22;13129;48.012;10.352;2023-02-24T08:35:11;15.40;99.90
25170;DHT22;13129;48.012;10.352;2023-02-24T08:37:41;16.20;99.90
25170;DHT22;13129;48.012;10.352;2023-02-24T08:43:21;16.40;99.90
25170;DHT22;13129;48.012;10.352;2023-02-24T08:45:58;16.30;99.90
25170;DHT22;13129;48.012;10.352;2023-02-24T08:48:39;16.00;99.40
25170;DHT22;13129;48.012;10.352;2023-02-24T08:51:14;16.30;99.60
25170;DHT22;13129;48.012;10.352;2023-02-24T08:53:43;16.10;98.90
25170;DHT22;13129;48.012;10.352;2023-02-24T08:56:11;16.70;98.00
25170;DHT22;13129;48.012;10.352;2023-02-24T08:58:44;17.10;97.90
25170;DHT22;13129;48.012;10.352;2023-02-24T09:01:21;17.40;96.30
25170;DHT22;13129;48.012;10.352;2023-02-24T09:03:52;17.00;95.70
25170;DHT22;13129;48.012;10.352;2023-02-24T09:06:25;16.30;95.60
25170;DHT22;13129;48.012;10.352;2023-02-24T09:08:54;15.50;96.00
25170;DHT22;13129;48.012;10.352;2023-02-24T09:11:40;14.70;97.00
25170;DHT22;13129;48.012;10.352;2023-02-24T09:14:10;14.20;97.60
25170;DHT22;13129;48.012;10.352;2023-02-24T09:16:42;13.90;98.10
25170;DHT22;13129;48.012;10.352;2023-02-24T09:19:29;13.80;98.40
25170;DHT22;13129;48.012;10.352;2023-02-24T09:22:14;13.60;98.20
25170;DHT22;13129;48.012;10.352;2023-02-24T09:25:05;13.40;98.80
25170;DHT22;13129;48.012;10.352;2023-02-24T09:28:16;13.70;99.10
25170;DHT22;13129;48.012;10.352;2023-02-24T09:30:55;14.00;98.50
25170;DHT22;13129;48.012;10.352;2023-02-24T09:33:28;14.20;98.40
25170;DHT22;13129;48.012;10.352;2023-02-24T09:36:05;14.10;98.70
25170;DHT22;13129;48.012;10.352;2023-02-24T09:38:49;13.90;98.70
25170;DHT22;13129;48.012;10.352;2023-02-24T09:44:32;13.70;99.10
25170;DHT22;13129;48.012;10.352;2023-02-24T09:47:19;13.40;99.40
25170;DHT22;13129;48.012;10.352;2023-02-24T09:50:22;13.30;99.70
25170;DHT22;13129;48.012;10.352;2023-02-24T09:52:50;13.30;99.90
25170;DHT22;13129;48.012;10.352;2023-02-24T10:12:35;12.80;99.90
25170;DHT22;13129;48.012;10.352;2023-02-24T10:15:14;12.70;99.90
25170;DHT22;13129;48.012;10.352;2023-02-24T10:17:53;12.50;99.90
25170;DHT22;13129;48.012;10.352;2023-02-24T10:20:20;12.30;99.90
25170;DHT22;13129;48.012;10.352;2023-02-24T10:26:35;12.00;99.90
25170;DHT22;13129;48.012;10.352;2023-02-24T10:32:18;11.50;99.90
25170;DHT22;13129;48.012;10.352;2023-02-24T10:34:49;11.50;99.90
25170;DHT22;13129;48.012;10.352;2023-02-24T10:37:17;11.40;99.90
25170;DHT22;13129;48.012;10.352;2023-02-24T10:39:45;11.40;99.90
25170;DHT22;13129;48.012;10.352;2023-02-24T10:42:35;11.40;99.90
25170;DHT22;13129;48.012;10.352;2023-02-24T10:45:24;11.60;99.90
25170;DHT22;13129;48.012;10.352;2023-02-24T10:47:52;12.10;99.90
25170;DHT22;13129;48.012;10.352;2023-02-24T10:53:11;12.90;99.90
25170;DHT22;13129;48.012;10.352;2023-02-24T10:55:50;13.20;99.90
25170;DHT22;13129;48.012;10.352;2023-02-24T10:58:34;13.40;99.90
25170;DHT22;13129;48.012;10.352;2023-02-24T11:01:23;13.20;99.90
25170;DHT22;13129;48.012;10.352;2023-02-24T11:04:15;13.00;99.90
25170;DHT22;13129;48.012;10.352;2023-02-24T11:07:22;12.70;99.90
25170;DHT22;13129;48.012;10.352;2023-02-24T11:10:24;12.30;99.90
25170;DHT22;13129;48.012;10.352;2023-02-24T11:12:52;12.00;99.90
25170;DHT22;13129;48.012;10.352;2023-02-24T11:18:30;11.50;99.90
25170;DHT22;13129;48.012;10.352;2023-02-24T11:21:02;11.40;99.90
25170;DHT22;13129;48.012;10.352;2023-02-24T11:23:43;11.40;99.90
25170;DHT22;13129;48.012;10.352;2023-02-24T11:26:25;11.40;99.90
25170;DHT22;13129;48.012;10.352;2023-02-24T11:31:39;11.70;99.90
25170;DHT22;13129;48.012;10.352;2023-02-24T11:34:26;11.90;99.90
25170;DHT22;13129;48.012;10.352;2023-02-24T11:39:57;11.70;99.90
25170;DHT22;13129;48.012;10.352;2023-02-24T11:42:54;11.40;99.90
25170;DHT22;13129;48.012;10.352;2023-02-24T11:48:18;11.20;99.90
25170;DHT22;13129;48.012;10.352;2023-02-24T11:51:12;11.30;99.90
25170;DHT22;13129;48.012;10.352;2023-02-24T11:53:44;11.50;99.90
25170;DHT22;13129;48.012;10.352;2023-02-24T12:01:38;12.50;99.90
25170;DHT22;13129;48.012;10.352;2023-02-24T12:07:13;12.60;99.90
25170;DHT22;13129;48.012;10.352;2023-02-24T12:09:48;12.50;99.90
25170;DHT22;13129;48.012;10.352;2023-02-24T12:12:22;12.50;99.90
25170;DHT22;13129;48.012;10.352;2023-02-24T12:15:09;12.40;99.90
25170;DHT22;13129;48.012;10.352;2023-02-24T12:17:43;12.60;99.90
25170;DHT22;13129;48.012;10.352;2023-02-24T12:20:34;12.70;99.90
25170;DHT22;13129;48.012;10.352;2023-02-24T12:23:30;12.80;99.90
25170;DHT22;13129;48.012;10.352;2023-02-24T12:26:17;12.80;99.90
25170;DHT22;13129;48.012;10.352;2023-02-24T12:29:07;12.80;99.90
25170;DHT22;13129;48.012;10.352;2023-02-24T12:34:14;12.90;99.90
25170;DHT22;13129;48.012;10.352;2023-02-24T12:39:30;13.00;99.90
25170;DHT22;13129;48.012;10.352;2023-02-24T12:44:37;12.90;99.90
25170;DHT22;13129;48.012;10.352;2023-02-24T12:47:12;12.80;99.90
25170;DHT22;13129;48.012;10.352;2023-02-24T12:52:19;12.40;99.90
25170;DHT22;13129;48.012;10.352;2023-02-24T12:55:16;12.20;99.90
25170;DHT22;13129;48.012;10.352;2023-02-24T13:00:36;12.00;99.90
25170;DHT22;13129;48.012;10.352;2023-02-24T13:06:19;12.00;99.90
25170;DHT22;13129;48.012;10.352;2023-02-24T13:14:35;12.00;99.90
25170;DHT22;13129;48.012;10.352;2023-02-24T13:19:34;11.80;99.90
25170;DHT22;13129;48.012;10.352;2023-02-24T13:24:42;11.70;99.90
25170;DHT22;13129;48.012;10.352;2023-02-24T13:27:24;11.60;99.90
25170;DHT22;13129;48.012;10.352;2023-02-24T13:30:22;11.50;99.90
25170;DHT22;13129;48.012;10.352;2023-02-24T13:36:15;11.30;99.90
25170;DHT22;13129;48.012;10.352;2023-02-24T13:38:43;11.10;99.90
25170;DHT22;13129;48.012;10.352;2023-02-24T13:55:28;10.70;99.90
25170;DHT22;13129;48.012;10.352;2023-02-24T14:02:55;10.30;99.90
25170;DHT22;13129;48.012;10.352;2023-02-24T14:05:31;10.30;99.90
25170;DHT22;13129;48.012;10.352;2023-02-24T14:07:58;10.20;99.90
25170;DHT22;13129;48.012;10.352;2023-02-24T14:10:27;10.20;99.90
25170;DHT22;13129;48.012;10.352;2023-02-24T14:13:07;10.20;99.90
25170;DHT22;13129;48.012;10.352;2023-02-24T14:15:42;10.30;99.90
25170;DHT22;13129;48.012;10.352;2023-02-24T14:18:22;10.30;99.90
25170;DHT22;13129;48.012;10.352;2023-02-24T14:20:47;10.40;99.90
25170;DHT22;13129;48.012;10.352;2023-02-24T14:23:39;10.40;99.90
25170;DHT22;13129;48.012;10.352;2023-02-24T14:26:14;10.50;99.90
25170;DHT22;13129;48.012;10.352;2023-02-24T14:28:43;10.60;99.90
25170;DHT22;13129;48.012;10.352;2023-02-24T14:31:21;10.70;99.90
25170;DHT22;13129;48.012;10.352;2023-02-24T14:34:01;10.70;99.90
25170;DHT22;13129;48.012;10.352;2023-02-24T14:36:30;10.70;99.90
25170;DHT22;13129;48.012;10.352;2023-02-24T14:39:22;10.60;99.90
25170;DHT22;13129;48.012;10.352;2023-02-24T14:41:49;10.60;99.90
25170;DHT22;13129;48.012;10.352;2023-02-24T14:44:24;10.50;99.90
25170;DHT22;13129;48.012;10.352;2023-02-24T14:46:54;10.50;99.90
25170;DHT22;13129;48.012;10.352;2023-02-24T14:49:23;10.50;99.90
25170;DHT22;13129;48.012;10.352;2023-02-24T14:51:57;10.40;99.90
25170;DHT22;13129;48.012;10.352;2023-02-24T14:57:04;10.20;99.90
25170;DHT22;13129;48.012;10.352;2023-02-24T14:59:34;10.20;99.90
25170;DHT22;13129;48.012;10.352;2023-02-24T15:02:06;10.10;99.90
25170;DHT22;13129;48.012;10.352;2023-02-24T15:04:39;10.10;99.90
25170;DHT22;13129;48.012;10.352;2023-02-24T15:07:18;10.00;99.90
25170;DHT22;13129;48.012;10.352;2023-02-24T15:09:47;9.90;99.90
25170;DHT22;13129;48.012;10.352;2023-02-24T15:12:50;9.90;99.90
25170;DHT22;13129;48.012;10.352;2023-02-24T15:15:19;9.90;99.90
25170;DHT22;13129;48.012;10.352;2023-02-24T15:17:48;10.00;99.90
25170;DHT22;13129;48.012;10.352;2023-02-24T15:20:35;10.00;99.90
25170;DHT22;13129;48.012;10.352;2023-02-24T15:23:02;9.90;99.90
25170;DHT22;13129;48.012;10.352;2023-02-24T15:25:41;9.90;99.90
25170;DHT22;13129;48.012;10.352;2023-02-24T15:28:32;9.80;99.90
25170;DHT22;13129;48.012;10.352;2023-02-24T15:33:34;9.60;99.90
25170;DHT22;13129;48.012;10.352;2023-02-24T15:36:00;9.40;99.90
25170;DHT22;13129;48.012;10.352;2023-02-24T15:38:37;9.20;99.90
25170;DHT22;13129;48.012;10.352;2023-02-24T15:41:05;9.10;99.90
25170;DHT22;13129;48.012;10.352;2023-02-24T15:46:28;8.90;99.90
25170;DHT22;13129;48.012;10.352;2023-02-24T15:48:55;8.90;99.90
25170;DHT22;13129;48.012;10.352;2023-02-24T15:51:42;8.80;99.90
25170;DHT22;13129;48.012;10.352;2023-02-24T15:56:45;8.70;99.90
25170;DHT22;13129;48.012;10.352;2023-02-24T15:59:17;8.60;99.90
25170;DHT22;13129;48.012;10.352;2023-02-24T16:01:43;8.70;99.90
25170;DHT22;13129;48.012;10.352;2023-02-24T16:04:09;8.60;99.90
25170;DHT22;13129;48.012;10.352;2023-02-24T16:06:39;8.60;99.90
25170;DHT22;13129;48.012;10.352;2023-02-24T16:09:13;8.50;99.90
25170;DHT22;13129;48.012;10.352;2023-02-24T16:11:39;8.40;99.90
25170;DHT22;13129;48.012;10.352;2023-02-24T16:14:10;8.40;99.90
25170;DHT22;13129;48.012;10.352;2023-02-24T16:16:39;8.40;99.90
25170;DHT22;13129;48.012;10.352;2023-02-24T16:19:05;8.30;99.90
25170;DHT22;13129;48.012;10.352;2023-02-24T16:21:31;8.40;99.90
25170;DHT22;13129;48.012;10.352;2023-02-24T16:23:57;8.30;99.90
25170;DHT22;13129;48.012;10.352;2023-02-24T16:26:23;8.20;99.90
25170;DHT22;13129;48.012;10.352;2023-02-24T16:28:56;8.10;99.90
25170;DHT22;13129;48.012;10.352;2023-02-24T16:31:25;8.00;99.90
25170;DHT22;13129;48.012;10.352;2023-02-24T16:33:51;7.90;99.90
25170;DHT22;13129;48.012;10.352;2023-02-24T16:36:17;7.70;99.90
25170;DHT22;13129;48.012;10.352;2023-02-24T16:38:43;7.60;99.90
25170;DHT22;13129;48.012;10.352;2023-02-24T16:41:12;7.50;99.90
25170;DHT22;13129;48.012;10.352;2023-02-24T16:43:39;7.50;99.90
25170;DHT22;13129;48.012;10.352;2023-02-24T16:46:09;7.50;99.90
25170;DHT22;13129;48.012;10.352;2023-02-24T16:48:38;7.50;99.90
25170;DHT22;13129;48.012;10.352;2023-02-24T16:51:06;7.50;99.90
25170;DHT22;13129;48.012;10.352;2023-02-24T16:53:33;7.50;99.90
25170;DHT22;13129;48.012;10.352;2023-02-24T16:55:59;7.50;99.90
25170;DHT22;13129;48.012;10.352;2023-02-24T16:58:25;7.50;99.90
25170;DHT22;13129;48.012;10.352;2023-02-24T17:00:54;7.50;99.90
25170;DHT22;13129;48.012;10.352;2023-02-24T17:03:23;7.60;99.90
25170;DHT22;13129;48.012;10.352;2023-02-24T17:05:49;7.60;99.90
25170;DHT22;13129;48.012;10.352;2023-02-24T17:08:15;7.60;99.90
25170;DHT22;13129;48.012;10.352;2023-02-24T17:10:42;7.60;99.90
25170;DHT22;13129;48.012;10.352;2023-02-24T17:13:16;7.60;99.90
25170;DHT22;13129;48.012;10.352;2023-02-24T17:15:42;7.60;99.90
25170;DHT22;13129;48.012;10.352;2023-02-24T17:18:09;7.60;99.90
25170;DHT22;13129;48.012;10.352;2023-02-24T17:20:35;7.60;99.90
25170;DHT22;13129;48.012;10.352;2023-02-24T17:23:01;7.70;99.90
25170;DHT22;13129;48.012;10.352;2023-02-24T17:25:28;7.60;99.90
25170;DHT22;13129;48.012;10.352;2023-02-24T17:27:55;7.60;99.90
25170;DHT22;13129;48.012;10.352;2023-02-24T17:30:27;7.60;99.90
25170;DHT22;13129;48.012;10.352;2023-02-24T17:32:54;7.60;99.90
25170;DHT22;13129;48.012;10.352;2023-02-24T17:35:19;7.60;99.90
25170;DHT22;13129;48.012;10.352;2023-02-24T17:37:45;7.50;99.90
25170;DHT22;13129;48.012;10.352;2023-02-24T17:40:11;7.50;99.90
25170;DHT22;13129;48.012;10.352;2023-02-24T17:42:37;7.50;99.90
25170;DHT22;13129;48.012;10.352;2023-02-24T17:45:04;7.50;99.90
25170;DHT22;13129;48.012;10.352;2023-02-24T17:47:30;7.50;99.90
25170;DHT22;13129;48.012;10.352;2023-02-24T17:49:56;7.50;99.90
25170;DHT22;13129;48.012;10.352;2023-02-24T17:52:22;7.50;99.90
25170;DHT22;13129;48.012;10.352;2023-02-24T17:54:48;7.50;99.90
25170;DHT22;13129;48.012;10.352;2023-02-24T17:57:14;7.50;99.90
25170;DHT22;13129;48.012;10.352;2023-02-24T17:59:42;7.50;99.90
25170;DHT22;13129;48.012;10.352;2023-02-24T18:02:10;7.40;99.90
25170;DHT22;13129;48.012;10.352;2023-02-24T18:04:36;7.50;99.90
25170;DHT22;13129;48.012;10.352;2023-02-24T18:07:02;7.40;99.90
25170;DHT22;13129;48.012;10.352;2023-02-24T18:09:28;7.40;99.90
25170;DHT22;13129;48.012;10.352;2023-02-24T18:11:53;7.50;99.90
25170;DHT22;13129;48.012;10.352;2023-02-24T18:14:20;7.40;99.90
25170;DHT22;13129;48.012;10.352;2023-02-24T18:16:46;7.40;99.90
25170;DHT22;13129;48.012;10.352;2023-02-24T18:19:12;7.40;99.90
25170;DHT22;13129;48.012;10.352;2023-02-24T18:21:37;7.40;99.90
25170;DHT22;13129;48.012;10.352;2023-02-24T18:24:03;7.30;99.90
25170;DHT22;13129;48.012;10.352;2023-02-24T18:26:29;7.30;99.90
25170;DHT22;13129;48.012;10.352;2023-02-24T18:28:55;7.30;99.90
25170;DHT22;13129;48.012;10.352;2023-02-24T18:31:24;7.30;99.90
25170;DHT22;13129;48.012;10.352;2023-02-24T18:33:50;7.40;99.90
25170;DHT22;13129;48.012;10.352;2023-02-24T18:36:16;7.40;99.90
25170;DHT22;13129;48.012;10.352;2023-02-24T18:38:43;7.40;99.90
25170;DHT22;13129;48.012;10.352;2023-02-24T18:41:17;7.40;99.90
25170;DHT22;13129;48.012;10.352;2023-02-24T18:43:46;7.40;99.90
25170;DHT22;13129;48.012;10.352;2023-02-24T18:46:13;7.30;99.90
25170;DHT22;13129;48.012;10.352;2023-02-24T18:48:39;7.30;99.90
25170;DHT22;13129;48.012;10.352;2023-02-24T18:51:06;7.20;99.90
25170;DHT22;13129;48.012;10.352;2023-02-24T18:53:34;7.20;99.90
25170;DHT22;13129;48.012;10.352;2023-02-24T18:56:05;7.10;99.90
25170;DHT22;13129;48.012;10.352;2023-02-24T18:58:31;7.10;99.90
25170;DHT22;13129;48.012;10.352;2023-02-24T19:00:57;7.10;99.90
25170;DHT22;13129;48.012;10.352;2023-02-24T19:03:23;7.10;99.90
25170;DHT22;13129;48.012;10.352;2023-02-24T19:05:49;7.00;99.90
25170;DHT22;13129;48.012;10.352;2023-02-24T19:08:14;7.00;99.90
25170;DHT22;13129;48.012;10.352;2023-02-24T19:10:40;7.00;99.90
25170;DHT22;13129;48.012;10.352;2023-02-24T19:13:09;7.00;99.90
25170;DHT22;13129;48.012;10.352;2023-02-24T19:15:36;6.90;99.90
25170;DHT22;13129;48.012;10.352;2023-02-24T19:18:02;6.90;99.90
25170;DHT22;13129;48.012;10.352;2023-02-24T19:20:28;6.80;99.90
25170;DHT22;13129;48.012;10.352;2023-02-24T19:22:53;6.90;99.90
25170;DHT22;13129;48.012;10.352;2023-02-24T19:25:19;6.90;99.90
25170;DHT22;13129;48.012;10.352;2023-02-24T19:27:45;6.90;99.90
25170;DHT22;13129;48.012;10.352;2023-02-24T19:30:13;7.00;99.90
25170;DHT22;13129;48.012;10.352;2023-02-24T19:32:39;6.90;99.90
25170;DHT22;13129;48.012;10.352;2023-02-24T19:35:05;7.00;99.90
25170;DHT22;13129;48.012;10.352;2023-02-24T19:37:31;7.00;99.90
25170;DHT22;13129;48.012;10.352;2023-02-24T19:39:57;7.00;99.90
25170;DHT22;13129;48.012;10.352;2023-02-24T19:42:23;7.00;99.90
25170;DHT22;13129;48.012;10.352;2023-02-24T19:44:50;7.00;99.90
25170;DHT22;13129;48.012;10.352;2023-02-24T19:47:16;7.00;99.90
25170;DHT22;13129;48.012;10.352;2023-02-24T19:49:41;7.00;99.90
25170;DHT22;13129;48.012;10.352;2023-02-24T19:52:07;7.00;99.90
25170;DHT22;13129;48.012;10.352;2023-02-24T19:54:33;7.00;99.90
25170;DHT22;13129;48.012;10.352;2023-02-24T19:56:58;7.00;99.90
25170;DHT22;13129;48.012;10.352;2023-02-24T19:59:24;7.00;99.90
25170;DHT22;13129;48.012;10.352;2023-02-24T20:01:50;7.00;99.90
25170;DHT22;13129;48.012;10.352;2023-02-24T20:04:17;6.90;99.90
25170;DHT22;13129;48.012;10.352;2023-02-24T20:06:43;6.90;99.90
25170;DHT22;13129;48.012;10.352;2023-02-24T20:09:12;6.90;99.90
25170;DHT22;13129;48.012;10.352;2023-02-24T20:11:40;6.90;99.90
25170;DHT22;13129;48.012;10.352;2023-02-24T20:14:08;6.80;99.90
25170;DHT22;13129;48.012;10.352;2023-02-24T20:16:39;6.80;99.90
25170;DHT22;13129;48.012;10.352;2023-02-24T20:19:07;6.80;99.90
25170;DHT22;13129;48.012;10.352;2023-02-24T20:21:34;6.80;99.90
25170;DHT22;13129;48.012;10.352;2023-02-24T20:24:04;6.80;99.90
25170;DHT22;13129;48.012;10.352;2023-02-24T20:26:30;6.80;99.90
25170;DHT22;13129;48.012;10.352;2023-02-24T20:28:56;6.80;99.90
25170;DHT22;13129;48.012;10.352;2023-02-24T20:31:22;6.80;99.90
25170;DHT22;13129;48.012;10.352;2023-02-24T20:33:48;6.80;99.90
25170;DHT22;13129;48.012;10.352;2023-02-24T20:36:22;6.70;99.90
25170;DHT22;13129;48.012;10.352;2023-02-24T20:38:49;6.70;99.90
25170;DHT22;13129;48.012;10.352;2023-02-24T20:41:15;6.70;99.90
25170;DHT22;13129;48.012;10.352;2023-02-24T20:43:41;6.60;99.90
25170;DHT22;13129;48.012;10.352;2023-02-24T20:46:19;6.60;99.90
25170;DHT22;13129;48.012;10.352;2023-02-24T20:48:49;6.70;99.90
25170;DHT22;13129;48.012;10.352;2023-02-24T20:51:15;6.70;99.90
25170;DHT22;13129;48.012;10.352;2023-02-24T20:53:41;6.80;99.90
25170;DHT22;13129;48.012;10.352;2023-02-24T20:56:10;6.70;99.90
25170;DHT22;13129;48.012;10.352;2023-02-24T20:58:40;6.70;99.90
25170;DHT22;13129;48.012;10.352;2023-02-24T21:01:05;6.80;99.90
25170;DHT22;13129;48.012;10.352;2023-02-24T21:03:31;6.80;99.90
25170;DHT22;13129;48.012;10.352;2023-02-24T21:05:57;6.70;99.90
25170;DHT22;13129;48.012;10.352;2023-02-24T21:08:23;6.80;99.90
25170;DHT22;13129;48.012;10.352;2023-02-24T21:10:49;6.80;99.90
25170;DHT22;13129;48.012;10.352;2023-02-24T21:13:15;6.70;99.90
25170;DHT22;13129;48.012;10.352;2023-02-24T21:15:51;6.70;99.90
25170;DHT22;13129;48.012;10.352;2023-02-24T21:18:20;6.70;99.90
25170;DHT22;13129;48.012;10.352;2023-02-24T21:20:46;6.70;99.90
25170;DHT22;13129;48.012;10.352;2023-02-24T21:23:12;6.70;99.90
25170;DHT22;13129;48.012;10.352;2023-02-24T21:25:38;6.70;99.90
25170;DHT22;13129;48.012;10.352;2023-02-24T21:28:06;6.70;99.90
25170;DHT22;13129;48.012;10.352;2023-02-24T21:30:31;6.70;99.90
25170;DHT22;13129;48.012;10.352;2023-02-24T21:32:57;6.70;99.90
25170;DHT22;13129;48.012;10.352;2023-02-24T21:35:23;6.70;99.90
25170;DHT22;13129;48.012;10.352;2023-02-24T21:37:48;6.60;99.90
25170;DHT22;13129;48.012;10.352;2023-02-24T21:40:25;6.30;99.90
25170;DHT22;13129;48.012;10.352;2023-02-24T21:42:51;5.90;99.90
25170;DHT22;13129;48.012;10.352;2023-02-24T21:45:18;5.40;99.90
25170;DHT22;13129;48.012;10.352;2023-02-24T21:47:44;5.00;99.90
25170;DHT22;13129;48.012;10.352;2023-02-24T21:50:10;4.80;99.90
25170;DHT22;13129;48.012;10.352;2023-02-24T21:52:38;4.60;99.90
25170;DHT22;13129;48.012;10.352;2023-02-24T21:55:05;4.60;99.90
25170;DHT22;13129;48.012;10.352;2023-02-24T21:57:31;4.40;99.90
25170;DHT22;13129;48.012;10.352;2023-02-24T22:00:04;4.40;99.90
25170;DHT22;13129;48.012;10.352;2023-02-24T22:02:43;4.30;99.90
25170;DHT22;13129;48.012;10.352;2023-02-24T22:05:09;4.40;99.90
25170;DHT22;13129;48.012;10.352;2023-02-24T22:07:35;4.20;99.90
25170;DHT22;13129;48.012;10.352;2023-02-24T22:10:01;4.20;99.90
25170;DHT22;13129;48.012;10.352;2023-02-24T22:12:28;4.20;99.90
25170;DHT22;13129;48.012;10.352;2023-02-24T22:14:54;4.20;99.90
25170;DHT22;13129;48.012;10.352;2023-02-24T22:17:19;4.30;99.90